NOZ418 ENGM-ENAL
Flight info
| Callsign | NOZ418 |
|---|---|
| Flight time | 0h 46m |
| Altitude | 34000 |
| Route | EVTOG DCT UTRUF DCT UFGUG DCT OBITI |
| Aircraft | B738/M-SDE2E3GHIJ1LRWXY/LB1 |
Departure
| Time | 2026-05-04 19:15 |
|---|---|
| Airport | Oslo-Gardermoen International Airport (ENGM) |
Arrival
| Time | 2026-05-04 20:02 |
|---|---|
| Airport | Ålesund Airport (ENAL) |
| Time | Latitude | Longitude | Altitude | Speed | Heading |
|---|---|---|---|---|---|
| 2026-05-04 18:43 | 60.19601 | 11.10187 | 679 ft | 0 kts | 286° |
| 2026-05-04 19:03 | 60.19597 | 11.10215 | 679 ft | 2 kts | 287° |
| 2026-05-04 19:04 | 60.19593 | 11.10244 | 679 ft | 2 kts | 286° |
| 2026-05-04 19:04 | 60.19589 | 11.10271 | 679 ft | 1 kts | 287° |
| 2026-05-04 19:04 | 60.19588 | 11.10274 | 679 ft | 0 kts | 286° |
| 2026-05-04 19:08 | 60.19591 | 11.10271 | 679 ft | 0 kts | 330° |
| 2026-05-04 19:08 | 60.19597 | 11.10282 | 679 ft | 2 kts | 64° |
| 2026-05-04 19:08 | 60.19605 | 11.10328 | 680 ft | 5 kts | 70° |
| 2026-05-04 19:08 | 60.19622 | 11.10399 | 680 ft | 6 kts | 51° |
| 2026-05-04 19:09 | 60.19667 | 11.10449 | 680 ft | 8 kts | 17° |
| 2026-05-04 19:09 | 60.19736 | 11.10487 | 680 ft | 12 kts | 15° |
| 2026-05-04 19:09 | 60.19832 | 11.10542 | 681 ft | 15 kts | 15° |
| 2026-05-04 19:09 | 60.19890 | 11.10548 | 681 ft | 6 kts | 317° |
| 2026-05-04 19:10 | 60.19915 | 11.10402 | 681 ft | 16 kts | 284° |
| 2026-05-04 19:10 | 60.19949 | 11.10163 | 680 ft | 18 kts | 287° |
| 2026-05-04 19:10 | 60.19984 | 11.09920 | 679 ft | 18 kts | 285° |
| 2026-05-04 19:10 | 60.20020 | 11.09672 | 679 ft | 19 kts | 286° |
| 2026-05-04 19:11 | 60.20060 | 11.09398 | 680 ft | 20 kts | 286° |
| 2026-05-04 19:11 | 60.20099 | 11.09127 | 679 ft | 20 kts | 285° |
| 2026-05-04 19:11 | 60.20130 | 11.08921 | 678 ft | 7 kts | 302° |
| 2026-05-04 19:11 | 60.20195 | 11.08913 | 679 ft | 13 kts | 14° |
| 2026-05-04 19:12 | 60.20310 | 11.08981 | 679 ft | 21 kts | 16° |
| 2026-05-04 19:12 | 60.20633 | 11.09165 | 680 ft | 27 kts | 15° |
| 2026-05-04 19:12 | 60.20814 | 11.09272 | 681 ft | 26 kts | 17° |
| 2026-05-04 19:13 | 60.20993 | 11.09375 | 683 ft | 26 kts | 16° |
| 2026-05-04 19:13 | 60.21166 | 11.09474 | 685 ft | 25 kts | 15° |
| 2026-05-04 19:13 | 60.21336 | 11.09573 | 687 ft | 24 kts | 16° |
| 2026-05-04 19:13 | 60.21467 | 11.09648 | 688 ft | 11 kts | 7° |
| 2026-05-04 19:14 | 60.21532 | 11.09577 | 687 ft | 11 kts | 302° |
| 2026-05-04 19:14 | 60.21561 | 11.09408 | 684 ft | 14 kts | 286° |
| 2026-05-04 19:14 | 60.21587 | 11.09212 | 682 ft | 10 kts | 282° |
| 2026-05-04 19:14 | 60.21550 | 11.09132 | 682 ft | 10 kts | 197° |
| 2026-05-04 19:15 | 60.21356 | 11.09022 | 681 ft | 62 kts | 197° |
| 2026-05-04 19:15 | 60.20718 | 11.08656 | 678 ft | 125 kts | 197° |
| 2026-05-04 19:15 | 60.19708 | 11.08082 | 747 ft | 167 kts | 199° |
| 2026-05-04 19:15 | 60.18613 | 11.07478 | 1434 ft | 165 kts | 200° |
| 2026-05-04 19:16 | 60.17506 | 11.06854 | 2143 ft | 167 kts | 203° |
| 2026-05-04 19:16 | 60.16428 | 11.05828 | 2566 ft | 179 kts | 223° |
| 2026-05-04 19:16 | 60.15747 | 11.03776 | 3162 ft | 180 kts | 255° |
| 2026-05-04 19:16 | 60.15358 | 11.01482 | 3936 ft | 179 kts | 250° |
| 2026-05-04 19:17 | 60.14870 | 10.98997 | 4281 ft | 202 kts | 252° |
| 2026-05-04 19:17 | 60.14352 | 10.96235 | 4779 ft | 221 kts | 253° |
| 2026-05-04 19:17 | 60.14001 | 10.93192 | 5380 ft | 234 kts | 265° |
| 2026-05-04 19:17 | 60.13890 | 10.89851 | 6061 ft | 245 kts | 269° |
| 2026-05-04 19:18 | 60.13825 | 10.86435 | 6826 ft | 253 kts | 269° |
| 2026-05-04 19:18 | 60.13736 | 10.82917 | 7838 ft | 251 kts | 268° |
| 2026-05-04 19:18 | 60.13628 | 10.79467 | 8719 ft | 253 kts | 268° |
| 2026-05-04 19:18 | 60.13508 | 10.76007 | 9686 ft | 251 kts | 268° |
| 2026-05-04 19:19 | 60.13387 | 10.72525 | 10401 ft | 258 kts | 268° |
| 2026-05-04 19:19 | 60.13330 | 10.68823 | 10974 ft | 270 kts | 275° |
| 2026-05-04 19:19 | 60.13769 | 10.65158 | 11701 ft | 278 kts | 294° |
| 2026-05-04 19:19 | 60.14885 | 10.62122 | 12545 ft | 287 kts | 311° |
| 2026-05-04 19:20 | 60.16492 | 10.59751 | 13438 ft | 295 kts | 322° |
| 2026-05-04 19:20 | 60.18312 | 10.57783 | 14282 ft | 302 kts | 325° |
| 2026-05-04 19:20 | 60.20186 | 10.55926 | 15053 ft | 307 kts | 325° |
| 2026-05-04 19:20 | 60.22099 | 10.54052 | 15928 ft | 309 kts | 324° |
| 2026-05-04 19:21 | 60.24027 | 10.52164 | 16701 ft | 314 kts | 325° |
| 2026-05-04 19:21 | 60.26064 | 10.50429 | 17505 ft | 320 kts | 328° |
| 2026-05-04 19:21 | 60.28142 | 10.48853 | 18209 ft | 326 kts | 329° |
| 2026-05-04 19:21 | 60.30277 | 10.47286 | 18917 ft | 330 kts | 328° |
| 2026-05-04 19:22 | 60.32446 | 10.45674 | 19645 ft | 333 kts | 328° |
| 2026-05-04 19:22 | 60.34627 | 10.44027 | 20378 ft | 335 kts | 328° |
| 2026-05-04 19:22 | 60.36782 | 10.42378 | 21036 ft | 338 kts | 327° |
| 2026-05-04 19:22 | 60.38937 | 10.40409 | 21583 ft | 334 kts | 319° |
| 2026-05-04 19:23 | 60.40779 | 10.37767 | 22155 ft | 327 kts | 310° |
| 2026-05-04 19:23 | 60.42413 | 10.34734 | 22789 ft | 325 kts | 306° |
| 2026-05-04 19:23 | 60.44017 | 10.31532 | 23533 ft | 323 kts | 305° |
| 2026-05-04 19:23 | 60.45623 | 10.28332 | 24066 ft | 328 kts | 306° |
| 2026-05-04 19:24 | 60.47288 | 10.25115 | 24647 ft | 333 kts | 307° |
| 2026-05-04 19:24 | 60.49008 | 10.21879 | 25130 ft | 339 kts | 307° |
| 2026-05-04 19:24 | 60.50756 | 10.18653 | 25743 ft | 341 kts | 308° |
| 2026-05-04 19:24 | 60.52501 | 10.15455 | 26329 ft | 342 kts | 308° |
| 2026-05-04 19:25 | 60.54274 | 10.12214 | 26899 ft | 344 kts | 308° |
| 2026-05-04 19:25 | 60.56049 | 10.08961 | 27283 ft | 350 kts | 308° |
| 2026-05-04 19:25 | 60.57832 | 10.05687 | 27783 ft | 352 kts | 308° |
| 2026-05-04 19:25 | 60.59666 | 10.02314 | 28311 ft | 354 kts | 308° |
| 2026-05-04 19:26 | 60.61446 | 9.99043 | 28676 ft | 359 kts | 308° |
| 2026-05-04 19:26 | 60.63290 | 9.95646 | 29160 ft | 361 kts | 308° |
| 2026-05-04 19:26 | 60.65142 | 9.92231 | 29664 ft | 362 kts | 308° |
| 2026-05-04 19:26 | 60.66986 | 9.88828 | 30161 ft | 362 kts | 309° |
| 2026-05-04 19:27 | 60.68846 | 9.85397 | 30811 ft | 358 kts | 308° |
| 2026-05-04 19:27 | 60.70684 | 9.81997 | 31293 ft | 358 kts | 308° |
| 2026-05-04 19:27 | 60.72525 | 9.78575 | 31712 ft | 359 kts | 308° |
| 2026-05-04 19:27 | 60.74366 | 9.75146 | 32085 ft | 360 kts | 308° |
| 2026-05-04 19:28 | 60.76215 | 9.71692 | 32447 ft | 362 kts | 309° |
| 2026-05-04 19:28 | 60.78076 | 9.68214 | 32843 ft | 363 kts | 309° |
| 2026-05-04 19:28 | 60.79919 | 9.64765 | 33100 ft | 365 kts | 309° |
| 2026-05-04 19:28 | 60.81809 | 9.61219 | 33316 ft | 366 kts | 309° |
| 2026-05-04 19:29 | 60.83665 | 9.57740 | 33493 ft | 366 kts | 309° |
| 2026-05-04 19:29 | 60.85562 | 9.54173 | 33602 ft | 368 kts | 309° |
| 2026-05-04 19:29 | 60.87439 | 9.50639 | 33630 ft | 366 kts | 309° |
| 2026-05-04 19:30 | 60.91179 | 9.43586 | 33635 ft | 367 kts | 309° |
| 2026-05-04 19:30 | 60.94934 | 9.36473 | 33623 ft | 367 kts | 309° |
| 2026-05-04 19:31 | 60.98502 | 9.29691 | 33636 ft | 368 kts | 309° |
| 2026-05-04 19:31 | 61.02238 | 9.22573 | 33657 ft | 368 kts | 308° |
| 2026-05-04 19:32 | 61.05936 | 9.15502 | 33638 ft | 367 kts | 308° |
| 2026-05-04 19:32 | 61.09689 | 9.08296 | 33648 ft | 369 kts | 309° |
| 2026-05-04 19:33 | 61.13155 | 9.01615 | 33633 ft | 369 kts | 309° |
| 2026-05-04 19:33 | 61.16904 | 8.94372 | 33623 ft | 371 kts | 309° |
| 2026-05-04 19:34 | 61.20668 | 8.87074 | 33643 ft | 373 kts | 309° |
| 2026-05-04 19:34 | 61.24450 | 8.79720 | 33634 ft | 372 kts | 309° |
| 2026-05-04 19:35 | 61.28208 | 8.72387 | 33649 ft | 372 kts | 310° |
| 2026-05-04 19:35 | 61.31995 | 8.64968 | 33626 ft | 375 kts | 309° |
| 2026-05-04 19:36 | 61.35784 | 8.57519 | 33581 ft | 372 kts | 310° |
| 2026-05-04 19:36 | 61.39529 | 8.50145 | 33607 ft | 373 kts | 309° |
| 2026-05-04 19:37 | 61.43298 | 8.42682 | 33564 ft | 374 kts | 309° |
| 2026-05-04 19:37 | 61.47048 | 8.35235 | 33584 ft | 378 kts | 310° |
| 2026-05-04 19:38 | 61.50683 | 8.27987 | 33565 ft | 372 kts | 309° |
| 2026-05-04 19:38 | 61.54425 | 8.20495 | 33313 ft | 378 kts | 309° |
| 2026-05-04 19:38 | 61.56329 | 8.16679 | 33004 ft | 373 kts | 309° |
| 2026-05-04 19:39 | 61.58179 | 8.12974 | 32683 ft | 368 kts | 309° |
| 2026-05-04 19:39 | 61.60001 | 8.09321 | 32350 ft | 365 kts | 309° |
| 2026-05-04 19:39 | 61.61845 | 8.05607 | 31916 ft | 366 kts | 309° |
| 2026-05-04 19:39 | 61.63670 | 8.01924 | 31467 ft | 363 kts | 308° |
| 2026-05-04 19:40 | 61.65493 | 7.98241 | 30921 ft | 365 kts | 308° |
| 2026-05-04 19:40 | 61.67349 | 7.94638 | 30294 ft | 368 kts | 309° |
| 2026-05-04 19:40 | 61.69270 | 7.91084 | 29618 ft | 370 kts | 311° |
| 2026-05-04 19:40 | 61.71219 | 7.87544 | 28965 ft | 372 kts | 310° |
| 2026-05-04 19:41 | 61.73163 | 7.84021 | 28276 ft | 372 kts | 311° |
| 2026-05-04 19:41 | 61.75124 | 7.80453 | 27619 ft | 372 kts | 311° |
| 2026-05-04 19:41 | 61.77072 | 7.76894 | 26918 ft | 372 kts | 310° |
| 2026-05-04 19:41 | 61.79002 | 7.73351 | 26311 ft | 370 kts | 310° |
| 2026-05-04 19:42 | 61.80954 | 7.69754 | 25756 ft | 366 kts | 310° |
| 2026-05-04 19:42 | 61.82837 | 7.66271 | 25174 ft | 363 kts | 310° |
| 2026-05-04 19:42 | 61.84736 | 7.62750 | 24662 ft | 358 kts | 310° |
| 2026-05-04 19:42 | 61.86576 | 7.59334 | 24185 ft | 352 kts | 310° |
| 2026-05-04 19:43 | 61.88404 | 7.55929 | 23738 ft | 346 kts | 310° |
| 2026-05-04 19:43 | 61.90193 | 7.52587 | 23292 ft | 341 kts | 310° |
| 2026-05-04 19:43 | 61.91944 | 7.49305 | 22856 ft | 338 kts | 311° |
| 2026-05-04 19:43 | 61.93697 | 7.46011 | 22403 ft | 334 kts | 311° |
| 2026-05-04 19:44 | 61.95414 | 7.42776 | 21927 ft | 334 kts | 312° |
| 2026-05-04 19:44 | 61.97160 | 7.39480 | 21486 ft | 333 kts | 313° |
| 2026-05-04 19:44 | 61.98890 | 7.36203 | 21006 ft | 335 kts | 313° |
| 2026-05-04 19:44 | 62.00211 | 7.33566 | 20620 ft | 334 kts | 310° |
| 2026-05-04 19:45 | 62.01764 | 7.29972 | 20132 ft | 330 kts | 307° |
| 2026-05-04 19:45 | 62.03305 | 7.26008 | 19622 ft | 328 kts | 306° |
| 2026-05-04 19:45 | 62.04673 | 7.22348 | 19131 ft | 329 kts | 306° |
| 2026-05-04 19:45 | 62.06089 | 7.18530 | 18601 ft | 328 kts | 306° |
| 2026-05-04 19:46 | 62.07493 | 7.14742 | 18082 ft | 328 kts | 306° |
| 2026-05-04 19:46 | 62.08913 | 7.10923 | 17541 ft | 327 kts | 306° |
| 2026-05-04 19:46 | 62.10040 | 7.07902 | 17116 ft | 325 kts | 307° |
| 2026-05-04 19:46 | 62.11138 | 7.04963 | 16706 ft | 325 kts | 307° |
| 2026-05-04 19:47 | 62.12658 | 7.00896 | 16121 ft | 324 kts | 307° |
| 2026-05-04 19:47 | 62.14176 | 6.96985 | 15544 ft | 322 kts | 310° |
| 2026-05-04 19:47 | 62.15693 | 6.93600 | 15124 ft | 317 kts | 314° |
| 2026-05-04 19:47 | 62.17271 | 6.90341 | 14718 ft | 312 kts | 315° |
| 2026-05-04 19:48 | 62.18832 | 6.87172 | 14302 ft | 308 kts | 315° |
| 2026-05-04 19:48 | 62.20377 | 6.84006 | 13893 ft | 303 kts | 315° |
| 2026-05-04 19:48 | 62.21862 | 6.80919 | 13488 ft | 299 kts | 314° |
| 2026-05-04 19:48 | 62.23350 | 6.77790 | 13075 ft | 296 kts | 314° |
| 2026-05-04 19:49 | 62.24793 | 6.74737 | 12665 ft | 293 kts | 314° |
| 2026-05-04 19:49 | 62.26233 | 6.71681 | 12271 ft | 290 kts | 314° |
| 2026-05-04 19:49 | 62.27573 | 6.68834 | 11995 ft | 284 kts | 314° |
| 2026-05-04 19:49 | 62.28965 | 6.65874 | 11653 ft | 280 kts | 314° |
| 2026-05-04 19:50 | 62.30309 | 6.63010 | 11325 ft | 276 kts | 314° |
| 2026-05-04 19:50 | 62.31642 | 6.60165 | 10951 ft | 274 kts | 314° |
| 2026-05-04 19:50 | 62.33000 | 6.57502 | 10585 ft | 273 kts | 322° |
| 2026-05-04 19:50 | 62.34666 | 6.55671 | 10328 ft | 273 kts | 344° |
| 2026-05-04 19:51 | 62.36555 | 6.55488 | 10065 ft | 280 kts | 7° |
| 2026-05-04 19:51 | 62.38397 | 6.56679 | 9808 ft | 283 kts | 20° |
| 2026-05-04 19:51 | 62.40111 | 6.58272 | 9522 ft | 282 kts | 21° |
| 2026-05-04 19:51 | 62.41911 | 6.60017 | 9198 ft | 279 kts | 21° |
| 2026-05-04 19:52 | 62.43465 | 6.61524 | 8913 ft | 275 kts | 21° |
| 2026-05-04 19:52 | 62.45120 | 6.63120 | 8798 ft | 268 kts | 22° |
| 2026-05-04 19:52 | 62.46801 | 6.64846 | 8547 ft | 264 kts | 24° |
| 2026-05-04 19:52 | 62.48428 | 6.66625 | 8266 ft | 260 kts | 24° |
| 2026-05-04 19:53 | 62.50013 | 6.68383 | 8000 ft | 251 kts | 24° |
| 2026-05-04 19:53 | 62.51543 | 6.70066 | 7694 ft | 245 kts | 24° |
| 2026-05-04 19:53 | 62.53044 | 6.71709 | 7381 ft | 240 kts | 24° |
| 2026-05-04 19:53 | 62.54505 | 6.73305 | 6995 ft | 238 kts | 24° |
| 2026-05-04 19:54 | 62.55975 | 6.74899 | 6603 ft | 235 kts | 22° |
| 2026-05-04 19:54 | 62.57481 | 6.76070 | 6238 ft | 229 kts | 6° |
| 2026-05-04 19:54 | 62.58972 | 6.75824 | 6013 ft | 217 kts | 338° |
| 2026-05-04 19:54 | 62.60333 | 6.74437 | 5771 ft | 212 kts | 331° |
| 2026-05-04 19:55 | 62.61640 | 6.73038 | 5514 ft | 208 kts | 333° |
| 2026-05-04 19:55 | 62.62941 | 6.71729 | 5247 ft | 203 kts | 334° |
| 2026-05-04 19:55 | 62.64220 | 6.70460 | 4991 ft | 200 kts | 334° |
| 2026-05-04 19:55 | 62.65471 | 6.69203 | 4789 ft | 193 kts | 333° |
| 2026-05-04 19:56 | 62.66582 | 6.67707 | 4635 ft | 183 kts | 315° |
| 2026-05-04 19:56 | 62.67190 | 6.65365 | 4566 ft | 177 kts | 282° |
| 2026-05-04 19:56 | 62.67110 | 6.62674 | 4515 ft | 184 kts | 253° |
| 2026-05-04 19:56 | 62.66638 | 6.60308 | 4460 ft | 185 kts | 248° |
| 2026-05-04 19:57 | 62.66079 | 6.57639 | 4386 ft | 184 kts | 249° |
| 2026-05-04 19:57 | 62.65549 | 6.55098 | 4315 ft | 185 kts | 248° |
| 2026-05-04 19:57 | 62.65017 | 6.52600 | 4269 ft | 185 kts | 248° |
| 2026-05-04 19:57 | 62.64466 | 6.50022 | 4081 ft | 188 kts | 248° |
| 2026-05-04 19:58 | 62.63911 | 6.47428 | 3758 ft | 189 kts | 248° |
| 2026-05-04 19:58 | 62.63365 | 6.44881 | 3485 ft | 188 kts | 248° |
| 2026-05-04 19:58 | 62.62808 | 6.42289 | 3210 ft | 187 kts | 248° |
| 2026-05-04 19:58 | 62.62264 | 6.39755 | 2935 ft | 185 kts | 248° |
| 2026-05-04 19:59 | 62.61716 | 6.37210 | 2670 ft | 183 kts | 248° |
| 2026-05-04 19:59 | 62.61200 | 6.34814 | 2412 ft | 181 kts | 247° |
| 2026-05-04 19:59 | 62.60663 | 6.32317 | 2155 ft | 180 kts | 248° |
| 2026-05-04 19:59 | 62.60133 | 6.29862 | 1898 ft | 177 kts | 247° |
| 2026-05-04 20:00 | 62.59629 | 6.27540 | 1630 ft | 165 kts | 248° |
| 2026-05-04 20:00 | 62.59168 | 6.25411 | 1447 ft | 149 kts | 247° |
| 2026-05-04 20:00 | 62.58742 | 6.23441 | 1218 ft | 136 kts | 246° |
| 2026-05-04 20:00 | 62.58340 | 6.21589 | 1033 ft | 133 kts | 246° |
| 2026-05-04 20:01 | 62.57956 | 6.19819 | 850 ft | 130 kts | 245° |
| 2026-05-04 20:01 | 62.57562 | 6.18010 | 661 ft | 130 kts | 245° |
| 2026-05-04 20:01 | 62.57177 | 6.16240 | 476 ft | 129 kts | 244° |
| 2026-05-04 20:01 | 62.56801 | 6.14501 | 311 ft | 128 kts | 244° |
| 2026-05-04 20:02 | 62.56419 | 6.12763 | 96 ft | 125 kts | 243° |
| 2026-05-04 20:02 | 62.56103 | 6.11334 | 80 ft | 67 kts | 244° |
| 2026-05-04 20:02 | 62.55997 | 6.10845 | 76 ft | 5 kts | 245° |
| 2026-05-04 20:02 | 62.55960 | 6.10764 | 74 ft | 11 kts | 185° |
| 2026-05-04 20:03 | 62.55925 | 6.10842 | 75 ft | 8 kts | 105° |
| 2026-05-04 20:03 | 62.55912 | 6.10950 | 77 ft | 5 kts | 104° |
| 2026-05-04 20:03 | 62.55905 | 6.11007 | 78 ft | 2 kts | 104° |
| 2026-05-04 20:03 | 62.55897 | 6.11073 | 79 ft | 6 kts | 101° |
| 2026-05-04 20:04 | 62.55912 | 6.11213 | 79 ft | 10 kts | 65° |
| 2026-05-04 20:04 | 62.55938 | 6.11337 | 78 ft | 3 kts | 84° |
| 2026-05-04 20:04 | 62.55930 | 6.11353 | 79 ft | 2 kts | 152° |
| 2026-05-04 20:04 | 62.55912 | 6.11372 | 79 ft | 2 kts | 154° |
| 2026-05-04 20:05 | 62.55903 | 6.11381 | 79 ft | 2 kts | 154° |
| 2026-05-04 20:05 | 62.55894 | 6.11391 | 80 ft | 0 kts | 154° |